sensor_id;sensor_type;location;lat;lon;timestamp;pressure;altitude;pressure_sealevel;temperature;humidity
46015;BME280;36844;51.898;-0.874;2022-09-09T00:02:25;99096.69;;;20.69;
46015;BME280;36844;51.898;-0.874;2022-09-09T00:08:02;99098.03;;;20.64;
46015;BME280;36844;51.898;-0.874;2022-09-09T00:10:56;99096.53;;;20.63;
46015;BME280;36844;51.898;-0.874;2022-09-09T00:13:48;99106.34;;;20.70;
46015;BME280;36844;51.898;-0.874;2022-09-09T00:16:38;99101.94;;;20.63;
46015;BME280;36844;51.898;-0.874;2022-09-09T00:19:43;99100.88;;;20.61;
46015;BME280;36844;51.898;-0.874;2022-09-09T00:22:32;99105.72;;;20.66;
46015;BME280;36844;51.898;-0.874;2022-09-09T00:25:23;99103.56;;;20.61;
46015;BME280;36844;51.898;-0.874;2022-09-09T00:28:20;99101.78;;;20.67;
46015;BME280;36844;51.898;-0.874;2022-09-09T00:31:11;99101.78;;;20.67;
46015;BME280;36844;51.898;-0.874;2022-09-09T00:34:03;99101.19;;;20.63;
46015;BME280;36844;51.898;-0.874;2022-09-09T00:36:52;99110.78;;;20.64;
46015;BME280;36844;51.898;-0.874;2022-09-09T00:39:42;99098.31;;;20.57;
46015;BME280;36844;51.898;-0.874;2022-09-09T00:48:23;99104.78;;;20.60;
46015;BME280;36844;51.898;-0.874;2022-09-09T00:51:32;99102.22;;;20.56;
46015;BME280;36844;51.898;-0.874;2022-09-09T00:54:35;99106.72;;;20.59;
46015;BME280;36844;51.898;-0.874;2022-09-09T00:57:29;99100.84;;;20.52;
46015;BME280;36844;51.898;-0.874;2022-09-09T01:00:54;99098.63;;;20.50;
46015;BME280;36844;51.898;-0.874;2022-09-09T01:03:54;99115.31;;;20.58;
46015;BME280;36844;51.898;-0.874;2022-09-09T01:06:40;99110.75;;;20.55;
46015;BME280;36844;51.898;-0.874;2022-09-09T01:09:32;99106.25;;;20.52;
46015;BME280;36844;51.898;-0.874;2022-09-09T01:15:44;99108.41;;;20.57;
46015;BME280;36844;51.898;-0.874;2022-09-09T01:18:34;99103.56;;;20.52;
46015;BME280;36844;51.898;-0.874;2022-09-09T01:24:27;99115.44;;;20.54;
46015;BME280;36844;51.898;-0.874;2022-09-09T01:27:17;99112.41;;;20.52;
46015;BME280;36844;51.898;-0.874;2022-09-09T01:30:11;99118.16;;;20.54;
46015;BME280;36844;51.898;-0.874;2022-09-09T01:32:58;99114.22;;;20.55;
46015;BME280;36844;51.898;-0.874;2022-09-09T01:35:50;99116.94;;;20.55;
46015;BME280;36844;51.898;-0.874;2022-09-09T01:38:40;99100.97;;;20.48;
46015;BME280;36844;51.898;-0.874;2022-09-09T01:41:26;99109.56;;;20.47;
46015;BME280;36844;51.898;-0.874;2022-09-09T01:44:11;99103.06;;;20.44;
46015;BME280;36844;51.898;-0.874;2022-09-09T01:46:57;99103.06;;;20.44;
46015;BME280;36844;51.898;-0.874;2022-09-09T01:49:43;99109.25;;;20.45;
46015;BME280;36844;51.898;-0.874;2022-09-09T01:52:29;99108.81;;;20.46;
46015;BME280;36844;51.898;-0.874;2022-09-09T01:55:15;99112.38;;;20.43;
46015;BME280;36844;51.898;-0.874;2022-09-09T01:58:40;99114.78;;;20.41;
46015;BME280;36844;51.898;-0.874;2022-09-09T02:01:39;99112.28;;;20.47;
46015;BME280;36844;51.898;-0.874;2022-09-09T02:04:40;99113.47;;;20.46;
46015;BME280;36844;51.898;-0.874;2022-09-09T02:07:34;99102.03;;;20.42;
46015;BME280;36844;51.898;-0.874;2022-09-09T02:10:30;99120.41;;;20.47;
46015;BME280;36844;51.898;-0.874;2022-09-09T02:13:18;99111.31;;;20.41;
46015;BME280;36844;51.898;-0.874;2022-09-09T02:16:13;99117.50;;;20.41;
46015;BME280;36844;51.898;-0.874;2022-09-09T02:19:29;99123.22;;;20.43;
46015;BME280;36844;51.898;-0.874;2022-09-09T02:22:16;99101.22;;;20.32;
46015;BME280;36844;51.898;-0.874;2022-09-09T02:25:03;99106.81;;;20.38;
46015;BME280;36844;51.898;-0.874;2022-09-09T02:27:51;99115.69;;;20.38;
46015;BME280;36844;51.898;-0.874;2022-09-09T02:30:37;99111.03;;;20.39;
46015;BME280;36844;51.898;-0.874;2022-09-09T02:33:27;99127.75;;;20.46;
46015;BME280;36844;51.898;-0.874;2022-09-09T02:36:15;99117.22;;;20.39;
46015;BME280;36844;51.898;-0.874;2022-09-09T02:39:02;99131.63;;;20.45;
46015;BME280;36844;51.898;-0.874;2022-09-09T02:41:49;99126.06;;;20.40;
46015;BME280;36844;51.898;-0.874;2022-09-09T02:44:35;99128.31;;;20.41;
46015;BME280;36844;51.898;-0.874;2022-09-09T02:47:26;99132.94;;;20.41;
46015;BME280;36844;51.898;-0.874;2022-09-09T02:50:17;99127.53;;;20.41;
46015;BME280;36844;51.898;-0.874;2022-09-09T02:53:18;99130.25;;;20.41;
46015;BME280;36844;51.898;-0.874;2022-09-09T02:56:10;99137.63;;;20.40;
46015;BME280;36844;51.898;-0.874;2022-09-09T02:58:58;99136.25;;;20.36;
46015;BME280;36844;51.898;-0.874;2022-09-09T03:01:44;99142.28;;;20.40;
46015;BME280;36844;51.898;-0.874;2022-09-09T03:04:30;99139.25;;;20.38;
46015;BME280;36844;51.898;-0.874;2022-09-09T03:07:20;99137.75;;;20.37;
46015;BME280;36844;51.898;-0.874;2022-09-09T03:10:06;99127.50;;;20.32;
46015;BME280;36844;51.898;-0.874;2022-09-09T03:12:52;99136.81;;;20.31;
46015;BME280;36844;51.898;-0.874;2022-09-09T03:15:37;99151.72;;;20.35;
46015;BME280;36844;51.898;-0.874;2022-09-09T03:18:23;99158.78;;;20.33;
46015;BME280;36844;51.898;-0.874;2022-09-09T03:21:09;99145.38;;;20.29;
46015;BME280;36844;51.898;-0.874;2022-09-09T03:23:55;99152.59;;;20.32;
46015;BME280;36844;51.898;-0.874;2022-09-09T03:26:41;99149.91;;;20.32;
46015;BME280;36844;51.898;-0.874;2022-09-09T03:29:30;99147.94;;;20.33;
46015;BME280;36844;51.898;-0.874;2022-09-09T03:32:15;99151.09;;;20.31;
46015;BME280;36844;51.898;-0.874;2022-09-09T03:35:03;99145.09;;;20.27;
46015;BME280;36844;51.898;-0.874;2022-09-09T03:37:49;99148.53;;;20.28;
46015;BME280;36844;51.898;-0.874;2022-09-09T03:40:34;99147.81;;;20.27;
46015;BME280;36844;51.898;-0.874;2022-09-09T03:43:25;99161.47;;;20.33;
46015;BME280;36844;51.898;-0.874;2022-09-09T03:46:11;99162.25;;;20.33;
46015;BME280;36844;51.898;-0.874;2022-09-09T03:48:56;99165.06;;;20.30;
46015;BME280;36844;51.898;-0.874;2022-09-09T03:51:42;99158.41;;;20.22;
46015;BME280;36844;51.898;-0.874;2022-09-09T03:54:28;99172.88;;;20.28;
46015;BME280;36844;51.898;-0.874;2022-09-09T03:57:13;99168.03;;;20.23;
46015;BME280;36844;51.898;-0.874;2022-09-09T04:00:06;99172.38;;;20.20;
46015;BME280;36844;51.898;-0.874;2022-09-09T04:02:52;99177.69;;;20.24;
46015;BME280;36844;51.898;-0.874;2022-09-09T04:05:39;99187.47;;;20.30;
46015;BME280;36844;51.898;-0.874;2022-09-09T04:08:27;99192.88;;;20.30;
46015;BME280;36844;51.898;-0.874;2022-09-09T04:11:13;99191.81;;;20.28;
46015;BME280;36844;51.898;-0.874;2022-09-09T04:13:59;99191.47;;;20.26;
46015;BME280;36844;51.898;-0.874;2022-09-09T04:16:45;99188.16;;;20.22;
46015;BME280;36844;51.898;-0.874;2022-09-09T04:19:31;99192.53;;;20.28;
46015;BME280;36844;51.898;-0.874;2022-09-09T04:22:16;99186.84;;;20.26;
46015;BME280;36844;51.898;-0.874;2022-09-09T04:25:02;99198.41;;;20.27;
46015;BME280;36844;51.898;-0.874;2022-09-09T04:27:56;99204.25;;;20.25;
46015;BME280;36844;51.898;-0.874;2022-09-09T04:30:42;99196.88;;;20.26;
46015;BME280;36844;51.898;-0.874;2022-09-09T04:33:28;99198.41;;;20.27;
46015;BME280;36844;51.898;-0.874;2022-09-09T04:36:15;99192.78;;;20.21;
46015;BME280;36844;51.898;-0.874;2022-09-09T04:39:02;99202.63;;;20.28;
46015;BME280;36844;51.898;-0.874;2022-09-09T04:41:47;99198.84;;;20.25;
46015;BME280;36844;51.898;-0.874;2022-09-09T04:44:33;99207.84;;;20.22;
46015;BME280;36844;51.898;-0.874;2022-09-09T04:47:19;99210.81;;;20.24;
46015;BME280;36844;51.898;-0.874;2022-09-09T04:50:05;99199.84;;;20.19;
46015;BME280;36844;51.898;-0.874;2022-09-09T04:52:51;99210.22;;;20.20;
46015;BME280;36844;51.898;-0.874;2022-09-09T04:55:37;99216.72;;;20.23;
46015;BME280;36844;51.898;-0.874;2022-09-09T04:58:23;99206.72;;;20.11;
46015;BME280;36844;51.898;-0.874;2022-09-09T05:01:11;99209.16;;;20.18;
46015;BME280;36844;51.898;-0.874;2022-09-09T05:03:57;99203.91;;;20.14;
46015;BME280;36844;51.898;-0.874;2022-09-09T05:06:43;99223.75;;;20.20;
46015;BME280;36844;51.898;-0.874;2022-09-09T05:09:28;99220.84;;;20.15;
46015;BME280;36844;51.898;-0.874;2022-09-09T05:12:16;99219.22;;;20.17;
46015;BME280;36844;51.898;-0.874;2022-09-09T05:15:04;99221.75;;;20.12;
46015;BME280;36844;51.898;-0.874;2022-09-09T05:17:50;99215.03;;;20.16;
46015;BME280;36844;51.898;-0.874;2022-09-09T05:20:38;99232.28;;;20.19;
46015;BME280;36844;51.898;-0.874;2022-09-09T05:23:23;99235.00;;;20.19;
46015;BME280;36844;51.898;-0.874;2022-09-09T05:26:12;99228.66;;;20.13;
46015;BME280;36844;51.898;-0.874;2022-09-09T05:28:59;99237.50;;;20.13;
46015;BME280;36844;51.898;-0.874;2022-09-09T05:31:46;99242.47;;;20.15;
46015;BME280;36844;51.898;-0.874;2022-09-09T05:34:32;99243.44;;;20.21;
46015;BME280;36844;51.898;-0.874;2022-09-09T05:37:18;99244.28;;;20.18;
46015;BME280;36844;51.898;-0.874;2022-09-09T05:40:04;99237.50;;;20.13;
46015;BME280;36844;51.898;-0.874;2022-09-09T05:42:50;99241.88;;;20.11;
46015;BME280;36844;51.898;-0.874;2022-09-09T05:45:35;99252.09;;;20.16;
46015;BME280;36844;51.898;-0.874;2022-09-09T05:48:21;99258.28;;;20.16;
46015;BME280;36844;51.898;-0.874;2022-09-09T05:51:08;99255.66;;;20.13;
46015;BME280;36844;51.898;-0.874;2022-09-09T05:53:54;99261.97;;;20.10;
46015;BME280;36844;51.898;-0.874;2022-09-09T05:56:45;99255.78;;;20.09;
46015;BME280;36844;51.898;-0.874;2022-09-09T05:59:31;99266.47;;;20.13;
46015;BME280;36844;51.898;-0.874;2022-09-09T06:02:17;99265.56;;;20.07;
46015;BME280;36844;51.898;-0.874;2022-09-09T06:05:03;99265.56;;;20.07;
46015;BME280;36844;51.898;-0.874;2022-09-09T06:07:52;99271.59;;;20.11;
46015;BME280;36844;51.898;-0.874;2022-09-09T06:10:37;99249.88;;;20.02;
46015;BME280;36844;51.898;-0.874;2022-09-09T06:13:23;99280.88;;;20.10;
46015;BME280;36844;51.898;-0.874;2022-09-09T06:16:18;99274.72;;;20.09;
46015;BME280;36844;51.898;-0.874;2022-09-09T06:19:04;99283.91;;;20.12;
46015;BME280;36844;51.898;-0.874;2022-09-09T06:21:49;99286.28;;;20.10;
46015;BME280;36844;51.898;-0.874;2022-09-09T06:24:36;99271.09;;;20.03;
46015;BME280;36844;51.898;-0.874;2022-09-09T06:27:21;99275.16;;;20.08;
46015;BME280;36844;51.898;-0.874;2022-09-09T06:30:07;99287.47;;;20.09;
46015;BME280;36844;51.898;-0.874;2022-09-09T06:32:55;99281.44;;;20.05;
46015;BME280;36844;51.898;-0.874;2022-09-09T06:35:40;99284.16;;;20.05;
46015;BME280;36844;51.898;-0.874;2022-09-09T06:38:26;99296.06;;;20.07;
46015;BME280;36844;51.898;-0.874;2022-09-09T06:41:16;99294.97;;;20.05;
46015;BME280;36844;51.898;-0.874;2022-09-09T06:44:03;99297.47;;;19.99;
46015;BME280;36844;51.898;-0.874;2022-09-09T06:46:49;99290.53;;;19.98;
46015;BME280;36844;51.898;-0.874;2022-09-09T06:49:35;99320.78;;;20.06;
46015;BME280;36844;51.898;-0.874;2022-09-09T06:52:21;99320.78;;;20.06;
46015;BME280;36844;51.898;-0.874;2022-09-09T06:55:06;99319.72;;;20.03;
46015;BME280;36844;51.898;-0.874;2022-09-09T06:57:53;99307.22;;;19.97;
46015;BME280;36844;51.898;-0.874;2022-09-09T07:00:39;99325.44;;;20.05;
46015;BME280;36844;51.898;-0.874;2022-09-09T07:03:25;99327.84;;;20.03;
46015;BME280;36844;51.898;-0.874;2022-09-09T07:06:16;99315.63;;;19.99;
46015;BME280;36844;51.898;-0.874;2022-09-09T07:09:07;99335.50;;;20.05;
46015;BME280;36844;51.898;-0.874;2022-09-09T07:11:56;99323.44;;;19.97;
46015;BME280;36844;51.898;-0.874;2022-09-09T07:14:45;99330.97;;;20.02;
46015;BME280;36844;51.898;-0.874;2022-09-09T07:17:30;99327.50;;;20.01;
46015;BME280;36844;51.898;-0.874;2022-09-09T07:20:16;99340.16;;;20.04;
46015;BME280;36844;51.898;-0.874;2022-09-09T07:23:02;99329.13;;;19.99;
46015;BME280;36844;51.898;-0.874;2022-09-09T07:25:47;99341.00;;;20.01;
46015;BME280;36844;51.898;-0.874;2022-09-09T07:28:33;99333.03;;;19.98;
46015;BME280;36844;51.898;-0.874;2022-09-09T07:31:22;99329.06;;;19.90;
46015;BME280;36844;51.898;-0.874;2022-09-09T07:34:09;99336.97;;;19.97;
46015;BME280;36844;51.898;-0.874;2022-09-09T07:36:54;99346.88;;;20.00;
46015;BME280;36844;51.898;-0.874;2022-09-09T07:39:42;99321.94;;;19.83;
46015;BME280;36844;51.898;-0.874;2022-09-09T07:42:27;99321.94;;;19.83;
46015;BME280;36844;51.898;-0.874;2022-09-09T07:45:13;99332.97;;;19.89;
46015;BME280;36844;51.898;-0.874;2022-09-09T07:48:00;99335.53;;;19.92;
46015;BME280;36844;51.898;-0.874;2022-09-09T07:50:45;99337.81;;;19.94;
46015;BME280;36844;51.898;-0.874;2022-09-09T07:53:31;99349.25;;;19.98;
46015;BME280;36844;51.898;-0.874;2022-09-09T07:56:18;99348.19;;;19.95;
46015;BME280;36844;51.898;-0.874;2022-09-09T07:59:04;99344.72;;;19.95;
46015;BME280;36844;51.898;-0.874;2022-09-09T08:01:52;99359.22;;;20.01;
46015;BME280;36844;51.898;-0.874;2022-09-09T08:04:39;99363.09;;;20.00;
46015;BME280;36844;51.898;-0.874;2022-09-09T08:07:25;99369.69;;;19.99;
46015;BME280;36844;51.898;-0.874;2022-09-09T08:10:11;99349.81;;;19.93;
46015;BME280;36844;51.898;-0.874;2022-09-09T08:12:59;99365.91;;;19.96;
46015;BME280;36844;51.898;-0.874;2022-09-09T08:15:45;99378.97;;;19.98;
46015;BME280;36844;51.898;-0.874;2022-09-09T08:18:31;99371.44;;;19.93;
46015;BME280;36844;51.898;-0.874;2022-09-09T08:21:18;99383.31;;;19.95;
46015;BME280;36844;51.898;-0.874;2022-09-09T08:24:04;99397.16;;;19.97;
46015;BME280;36844;51.898;-0.874;2022-09-09T08:26:50;99373.59;;;19.85;
46015;BME280;36844;51.898;-0.874;2022-09-09T08:29:36;99399.13;;;19.97;
46015;BME280;36844;51.898;-0.874;2022-09-09T08:32:23;99382.78;;;19.88;
46015;BME280;36844;51.898;-0.874;2022-09-09T08:35:08;99402.22;;;19.95;
46015;BME280;36844;51.898;-0.874;2022-09-09T08:37:54;99396.63;;;19.90;
46015;BME280;36844;51.898;-0.874;2022-09-09T08:40:43;99395.44;;;19.91;
46015;BME280;36844;51.898;-0.874;2022-09-09T08:43:34;99406.88;;;19.95;
46015;BME280;36844;51.898;-0.874;2022-09-09T08:46:31;99417.56;;;19.98;
46015;BME280;36844;51.898;-0.874;2022-09-09T08:52:32;99421.78;;;19.99;
46015;BME280;36844;51.898;-0.874;2022-09-09T08:55:35;99405.03;;;19.92;
46015;BME280;36844;51.898;-0.874;2022-09-09T08:58:27;99405.69;;;19.96;
46015;BME280;36844;51.898;-0.874;2022-09-09T09:10:37;99436.84;;;20.00;
46015;BME280;36844;51.898;-0.874;2022-09-09T09:13:43;99442.66;;;19.99;
46015;BME280;36844;51.898;-0.874;2022-09-09T09:19:33;99438.88;;;19.96;
46015;BME280;36844;51.898;-0.874;2022-09-09T09:22:24;99450.34;;;20.00;
46015;BME280;36844;51.898;-0.874;2022-09-09T09:25:27;99459.22;;;20.01;
46015;BME280;36844;51.898;-0.874;2022-09-09T09:31:06;99464.63;;;20.01;
46015;BME280;36844;51.898;-0.874;2022-09-09T09:33:54;99473.03;;;20.03;
46015;BME280;36844;51.898;-0.874;2022-09-09T09:36:59;99471.09;;;20.03;
46015;BME280;36844;51.898;-0.874;2022-09-09T09:39:47;99464.38;;;19.95;
46015;BME280;36844;51.898;-0.874;2022-09-09T09:42:34;99467.53;;;19.94;
46015;BME280;36844;51.898;-0.874;2022-09-09T09:48:14;99483.41;;;20.04;
46015;BME280;36844;51.898;-0.874;2022-09-09T09:51:04;99476.63;;;20.00;
46015;BME280;36844;51.898;-0.874;2022-09-09T09:53:53;99493.03;;;20.05;
46015;BME280;36844;51.898;-0.874;2022-09-09T09:56:40;99489.59;;;20.05;
46015;BME280;36844;51.898;-0.874;2022-09-09T09:59:34;99487.06;;;19.98;
46015;BME280;36844;51.898;-0.874;2022-09-09T10:02:23;99483.97;;;19.99;
46015;BME280;36844;51.898;-0.874;2022-09-09T10:08:10;99492.84;;;20.00;
46015;BME280;36844;51.898;-0.874;2022-09-09T10:17:22;99500.72;;;20.07;
46015;BME280;36844;51.898;-0.874;2022-09-09T10:38:15;99519.09;;;20.12;
46015;BME280;36844;51.898;-0.874;2022-09-09T10:44:17;99517.25;;;20.09;
46015;BME280;36844;51.898;-0.874;2022-09-09T10:50:29;99519.09;;;20.12;
46015;BME280;36844;51.898;-0.874;2022-09-09T10:56:07;99526.00;;;20.13;
46015;BME280;36844;51.898;-0.874;2022-09-09T10:58:58;99524.81;;;20.14;
46015;BME280;36844;51.898;-0.874;2022-09-09T11:01:57;99525.59;;;20.14;
46015;BME280;36844;51.898;-0.874;2022-09-09T11:05:18;99518.44;;;20.08;
46015;BME280;36844;51.898;-0.874;2022-09-09T11:08:10;99507.97;;;20.10;
46015;BME280;36844;51.898;-0.874;2022-09-09T11:10:58;99524.28;;;20.19;
46015;BME280;36844;51.898;-0.874;2022-09-09T11:13:56;99528.50;;;20.20;
46015;BME280;36844;51.898;-0.874;2022-09-09T11:17:14;99528.91;;;20.18;
46015;BME280;36844;51.898;-0.874;2022-09-09T11:20:05;99517.34;;;20.18;
46015;BME280;36844;51.898;-0.874;2022-09-09T11:22:55;99527.75;;;20.19;
46015;BME280;36844;51.898;-0.874;2022-09-09T11:25:53;99527.16;;;20.24;
46015;BME280;36844;51.898;-0.874;2022-09-09T11:29:08;99522.22;;;20.23;
46015;BME280;36844;51.898;-0.874;2022-09-09T11:32:16;99517.69;;;20.20;
46015;BME280;36844;51.898;-0.874;2022-09-09T11:38:19;99534.75;;;20.29;
46015;BME280;36844;51.898;-0.874;2022-09-09T11:41:07;99531.41;;;20.25;
46015;BME280;36844;51.898;-0.874;2022-09-09T11:43:54;99532.50;;;20.28;
46015;BME280;36844;51.898;-0.874;2022-09-09T11:46:40;99532.50;;;20.28;
46015;BME280;36844;51.898;-0.874;2022-09-09T11:49:42;99535.53;;;20.30;
46015;BME280;36844;51.898;-0.874;2022-09-09T11:52:40;99528.41;;;20.23;
46015;BME280;36844;51.898;-0.874;2022-09-09T11:55:30;99547.00;;;20.34;
46015;BME280;36844;51.898;-0.874;2022-09-09T11:58:18;99534.66;;;20.33;
46015;BME280;36844;51.898;-0.874;2022-09-09T12:04:16;99545.69;;;20.38;
46015;BME280;36844;51.898;-0.874;2022-09-09T12:07:21;99530.41;;;20.32;
46015;BME280;36844;51.898;-0.874;2022-09-09T12:10:23;99546.44;;;20.39;
46015;BME280;36844;51.898;-0.874;2022-09-09T12:13:19;99555.31;;;20.39;
46015;BME280;36844;51.898;-0.874;2022-09-09T12:16:32;99548.38;;;20.38;
46015;BME280;36844;51.898;-0.874;2022-09-09T12:19:21;99546.56;;;20.35;
46015;BME280;36844;51.898;-0.874;2022-09-09T12:28:44;99536.38;;;20.39;
46015;BME280;36844;51.898;-0.874;2022-09-09T12:31:46;99539.28;;;20.45;
46015;BME280;36844;51.898;-0.874;2022-09-09T12:34:47;99545.03;;;20.47;
46015;BME280;36844;51.898;-0.874;2022-09-09T12:37:37;99549.22;;;20.48;
46015;BME280;36844;51.898;-0.874;2022-09-09T12:40:33;99549.22;;;20.48;
46015;BME280;36844;51.898;-0.874;2022-09-09T12:43:22;99556.94;;;20.49;
46015;BME280;36844;51.898;-0.874;2022-09-09T12:46:40;99548.16;;;20.45;
46015;BME280;36844;51.898;-0.874;2022-09-09T12:49:38;99547.84;;;20.43;
46015;BME280;36844;51.898;-0.874;2022-09-09T12:52:37;99550.53;;;20.43;
46015;BME280;36844;51.898;-0.874;2022-09-09T12:55:28;99563.41;;;20.52;
46015;BME280;36844;51.898;-0.874;2022-09-09T12:58:16;99571.22;;;20.50;
46015;BME280;36844;51.898;-0.874;2022-09-09T13:01:04;99569.69;;;20.49;
46015;BME280;36844;51.898;-0.874;2022-09-09T13:03:51;99579.50;;;20.55;
46015;BME280;36844;51.898;-0.874;2022-09-09T13:06:37;99584.91;;;20.55;
46015;BME280;36844;51.898;-0.874;2022-09-09T13:09:23;99577.69;;;20.52;
46015;BME280;36844;51.898;-0.874;2022-09-09T13:12:27;99577.16;;;20.45;
46015;BME280;36844;51.898;-0.874;2022-09-09T13:15:19;99562.84;;;20.44;
46015;BME280;36844;51.898;-0.874;2022-09-09T13:18:11;99573.81;;;20.53;
46015;BME280;36844;51.898;-0.874;2022-09-09T13:20:57;99565.91;;;20.46;
46015;BME280;36844;51.898;-0.874;2022-09-09T13:23:48;99576.03;;;20.55;
46015;BME280;36844;51.898;-0.874;2022-09-09T13:26:35;99573.44;;;20.51;
46015;BME280;36844;51.898;-0.874;2022-09-09T13:29:20;99578.09;;;20.51;
46015;BME280;36844;51.898;-0.874;2022-09-09T13:32:17;99581.03;;;20.56;
46015;BME280;36844;51.898;-0.874;2022-09-09T13:35:03;99570.84;;;20.48;
46015;BME280;36844;51.898;-0.874;2022-09-09T13:37:49;99568.41;;;20.53;
46015;BME280;36844;51.898;-0.874;2022-09-09T13:40:34;99582.97;;;20.56;
46015;BME280;36844;51.898;-0.874;2022-09-09T13:43:22;99572.09;;;20.47;
46015;BME280;36844;51.898;-0.874;2022-09-09T13:46:30;99591.44;;;20.58;
46015;BME280;36844;51.898;-0.874;2022-09-09T13:49:19;99592.94;;;20.59;
46015;BME280;36844;51.898;-0.874;2022-09-09T13:52:10;99597.16;;;20.60;
46015;BME280;36844;51.898;-0.874;2022-09-09T13:54:57;99600.75;;;20.57;
46015;BME280;36844;51.898;-0.874;2022-09-09T13:57:58;99608.31;;;20.62;
46015;BME280;36844;51.898;-0.874;2022-09-09T14:00:45;99598.03;;;20.57;
46015;BME280;36844;51.898;-0.874;2022-09-09T14:03:31;99604.84;;;20.61;
46015;BME280;36844;51.898;-0.874;2022-09-09T14:06:17;99602.13;;;20.61;
46015;BME280;36844;51.898;-0.874;2022-09-09T14:09:14;99599.44;;;20.61;
46015;BME280;36844;51.898;-0.874;2022-09-09T14:12:02;99585.69;;;20.56;
46015;BME280;36844;51.898;-0.874;2022-09-09T14:14:48;99590.53;;;20.61;
46015;BME280;36844;51.898;-0.874;2022-09-09T14:17:33;99590.53;;;20.61;
46015;BME280;36844;51.898;-0.874;2022-09-09T14:20:21;99569.97;;;20.51;
46015;BME280;36844;51.898;-0.874;2022-09-09T14:23:09;99594.78;;;20.62;
46015;BME280;36844;51.898;-0.874;2022-09-09T14:25:55;99597.06;;;20.63;
46015;BME280;36844;51.898;-0.874;2022-09-09T14:28:41;99596.28;;;20.63;
46015;BME280;36844;51.898;-0.874;2022-09-09T14:31:27;99582.34;;;20.52;
46015;BME280;36844;51.898;-0.874;2022-09-09T14:34:12;99615.56;;;20.65;
46015;BME280;36844;51.898;-0.874;2022-09-09T14:36:59;99607.88;;;20.63;
46015;BME280;36844;51.898;-0.874;2022-09-09T14:39:45;99611.75;;;20.62;
46015;BME280;36844;51.898;-0.874;2022-09-09T14:42:32;99595.75;;;20.55;
46015;BME280;36844;51.898;-0.874;2022-09-09T14:45:17;99610.56;;;20.63;
46015;BME280;36844;51.898;-0.874;2022-09-09T14:48:03;99603.00;;;20.58;
46015;BME280;36844;51.898;-0.874;2022-09-09T14:50:49;99601.38;;;20.61;
46015;BME280;36844;51.898;-0.874;2022-09-09T14:53:35;99595.63;;;20.59;
46015;BME280;36844;51.898;-0.874;2022-09-09T14:56:23;99605.69;;;20.71;
46015;BME280;36844;51.898;-0.874;2022-09-09T14:59:09;99621.50;;;20.72;
46015;BME280;36844;51.898;-0.874;2022-09-09T15:01:55;99621.50;;;20.72;
46015;BME280;36844;51.898;-0.874;2022-09-09T15:04:40;99614.25;;;20.69;
46015;BME280;36844;51.898;-0.874;2022-09-09T15:07:26;99619.66;;;20.69;
46015;BME280;36844;51.898;-0.874;2022-09-09T15:10:13;99610.69;;;20.60;
46015;BME280;36844;51.898;-0.874;2022-09-09T15:12:59;99611.75;;;20.62;
46015;BME280;36844;51.898;-0.874;2022-09-09T15:15:45;99629.25;;;20.70;
46015;BME280;36844;51.898;-0.874;2022-09-09T15:18:31;99616.72;;;20.64;
46015;BME280;36844;51.898;-0.874;2022-09-09T15:21:20;99624.50;;;20.74;
46015;BME280;36844;51.898;-0.874;2022-09-09T15:24:06;99612.41;;;20.66;
46015;BME280;36844;51.898;-0.874;2022-09-09T15:26:53;99623.22;;;20.79;
46015;BME280;36844;51.898;-0.874;2022-09-09T15:29:39;99625.59;;;20.77;
46015;BME280;36844;51.898;-0.874;2022-09-09T15:32:24;99628.75;;;20.75;
46015;BME280;36844;51.898;-0.874;2022-09-09T15:35:10;99629.81;;;20.78;
46015;BME280;36844;51.898;-0.874;2022-09-09T15:37:55;99635.69;;;20.76;
46015;BME280;36844;51.898;-0.874;2022-09-09T15:40:43;99643.97;;;20.82;
46015;BME280;36844;51.898;-0.874;2022-09-09T15:43:29;99655.38;;;20.77;
46015;BME280;36844;51.898;-0.874;2022-09-09T15:49:07;99681.03;;;20.85;
46015;BME280;36844;51.898;-0.874;2022-09-09T15:51:56;99661.44;;;20.81;
46015;BME280;36844;51.898;-0.874;2022-09-09T15:54:43;99672.03;;;20.88;
46015;BME280;36844;51.898;-0.874;2022-09-09T15:57:28;99672.34;;;20.90;
46015;BME280;36844;51.898;-0.874;2022-09-09T16:00:14;99663.16;;;20.87;
46015;BME280;36844;51.898;-0.874;2022-09-09T16:03:00;99653.97;;;20.85;
46015;BME280;36844;51.898;-0.874;2022-09-09T16:05:49;99653.97;;;20.85;
46015;BME280;36844;51.898;-0.874;2022-09-09T16:08:39;99657.91;;;20.93;
46015;BME280;36844;51.898;-0.874;2022-09-09T16:11:28;99662.34;;;21.00;
46015;BME280;36844;51.898;-0.874;2022-09-09T16:14:14;99655.66;;;21.04;
46015;BME280;36844;51.898;-0.874;2022-09-09T16:17:03;99653.59;;;21.08;
46015;BME280;36844;51.898;-0.874;2022-09-09T16:19:48;99647.22;;;21.02;
46015;BME280;36844;51.898;-0.874;2022-09-09T16:22:34;99663.97;;;21.10;
46015;BME280;36844;51.898;-0.874;2022-09-09T16:25:20;99650.53;;;21.06;
46015;BME280;36844;51.898;-0.874;2022-09-09T16:28:06;99643.63;;;21.05;
46015;BME280;36844;51.898;-0.874;2022-09-09T16:30:52;99667.31;;;21.14;
46015;BME280;36844;51.898;-0.874;2022-09-09T16:33:38;99664.72;;;21.10;
46015;BME280;36844;51.898;-0.874;2022-09-09T16:36:24;99664.72;;;21.10;
46015;BME280;36844;51.898;-0.874;2022-09-09T16:39:16;99676.84;;;21.18;
46015;BME280;36844;51.898;-0.874;2022-09-09T16:42:02;99666.88;;;21.15;
46015;BME280;36844;51.898;-0.874;2022-09-09T16:44:50;99671.84;;;21.17;
46015;BME280;36844;51.898;-0.874;2022-09-09T16:47:35;99695.25;;;21.23;
46015;BME280;36844;51.898;-0.874;2022-09-09T16:50:21;99684.22;;;21.18;
46015;BME280;36844;51.898;-0.874;2022-09-09T16:53:07;99685.19;;;21.24;
46015;BME280;36844;51.898;-0.874;2022-09-09T16:55:55;99674.75;;;21.22;
46015;BME280;36844;51.898;-0.874;2022-09-09T16:58:41;99678.88;;;21.27;
46015;BME280;36844;51.898;-0.874;2022-09-09T17:01:30;99675.09;;;21.24;
46015;BME280;36844;51.898;-0.874;2022-09-09T17:04:19;99689.59;;;21.30;
46015;BME280;36844;51.898;-0.874;2022-09-09T17:07:06;99682.00;;;21.25;
46015;BME280;36844;51.898;-0.874;2022-09-09T17:09:51;99693.81;;;21.31;
46015;BME280;36844;51.898;-0.874;2022-09-09T17:12:39;99690.38;;;21.31;
46015;BME280;36844;51.898;-0.874;2022-09-09T17:15:26;99693.19;;;21.27;
46015;BME280;36844;51.898;-0.874;2022-09-09T17:18:12;99707.69;;;21.33;